Time;durP1;ratioP1;P1;durP2;ratioP2;P2;SDS_P1;SDS_P2;PMS_P1;PMS_P2;Temp;Humidity;BMP_temperature;BMP_pressure;BME280_temperature;BME280_humidity;BME280_pressure;Samples;Min_cycle;Max_cycle;Signal;HPM_P1;HPM_P2
2023/05/19 00:01:29;;;;;;;5.57;1.70;;;;;;;11.60;100.00;99821.75;4891243;29;20223;-77
2023/05/19 00:04:01;;;;;;;5.53;1.60;;;;;;;11.49;100.00;99821.53;4868490;29;20778;-77
2023/05/19 00:06:32;;;;;;;3.13;1.83;;;;;;;11.35;100.00;99813.47;4893683;29;20250;-77
2023/05/19 00:09:02;;;;;;;2.77;1.80;;;;;;;11.35;100.00;99813.47;4893686;29;20674;-77
2023/05/19 00:11:34;;;;;;;4.23;1.70;;;;;;;11.29;100.00;99814.69;4898486;29;20194;-77
2023/05/19 00:14:06;;;;;;;7.93;2.27;;;;;;;11.24;100.00;99827.34;4894885;29;20198;-77
2023/05/19 00:16:34;;;;;;;4.60;2.20;;;;;;;11.12;100.00;99817.44;4903879;29;20233;-77
2023/05/19 00:19:08;;;;;;;6.27;2.00;;;;;;;11.23;100.00;99822.97;4928414;29;20205;-77
2023/05/19 00:21:39;;;;;;;4.23;2.00;;;;;;;11.20;100.00;99812.56;4970618;28;20237;-77
2023/05/19 00:24:09;;;;;;;3.83;1.63;;;;;;;11.04;100.00;99822.28;4988575;28;20219;-77
2023/05/19 00:26:37;;;;;;;8.57;1.97;;;;;;;11.15;100.00;99819.91;4988028;28;20322;-77
2023/05/19 00:29:06;;;;;;;5.87;1.80;;;;;;;11.03;100.00;99818.78;4987973;28;20647;-77
2023/05/19 00:31:35;;;;;;;5.20;1.90;;;;;;;11.02;100.00;99816.22;4988108;28;20207;-76
2023/05/19 00:34:03;;;;;;;6.50;2.07;;;;;;;10.93;100.00;99812.28;4988649;28;20203;-77
2023/05/19 00:36:32;;;;;;;5.60;1.77;;;;;;;10.79;100.00;99812.16;4988308;28;20203;-77
2023/05/19 00:39:02;;;;;;;6.10;2.20;;;;;;;10.82;100.00;99812.88;4989680;28;20245;-77
2023/05/19 00:41:31;;;;;;;4.73;1.93;;;;;;;10.93;100.00;99809.63;4986440;28;20195;-77
2023/05/19 00:44:00;;;;;;;5.87;1.90;;;;;;;10.97;100.00;99816.47;4984168;28;20227;-77
2023/05/19 00:46:29;;;;;;;4.83;2.40;;;;;;;11.01;100.00;99811.88;4985565;28;20202;-77
2023/05/19 00:48:58;;;;;;;4.97;1.90;;;;;;;10.97;100.00;99800.56;4990606;28;20262;-77
2023/05/19 00:51:28;;;;;;;4.50;1.90;;;;;;;11.04;100.00;99801.09;4989311;28;20191;-77
2023/05/19 00:53:56;;;;;;;4.80;1.83;;;;;;;11.06;100.00;99797.41;4995778;28;20202;-77
2023/05/19 00:56:29;;;;;;;5.43;2.00;;;;;;;11.04;100.00;99799.28;4985602;28;20270;-77
2023/05/19 00:58:59;;;;;;;5.97;1.77;;;;;;;11.10;100.00;99792.81;4988717;28;20191;-77
2023/05/19 01:01:27;;;;;;;6.23;1.83;;;;;;;10.95;100.00;99791.00;4991207;28;20214;-76
2023/05/19 01:03:57;;;;;;;4.30;2.07;;;;;;;10.98;100.00;99790.81;4986393;28;20301;-77
2023/05/19 01:06:28;;;;;;;5.13;1.67;;;;;;;11.00;100.00;99787.16;4987384;28;20242;-77
2023/05/19 01:08:57;;;;;;;6.50;2.10;;;;;;;11.07;100.00;99787.66;4982832;28;20206;-78
2023/05/19 01:11:28;;;;;;;5.43;2.23;;;;;;;11.18;100.00;99785.25;4985595;28;20634;-77
2023/05/19 01:14:00;;;;;;;7.23;2.20;;;;;;;11.12;100.00;99775.84;4991598;28;20199;-77
2023/05/19 01:16:35;;;;;;;7.43;2.80;;;;;;;10.97;100.00;99779.34;4985817;28;20207;-78
2023/05/19 01:19:13;;;;;;;5.23;2.00;;;;;;;11.09;100.00;99775.16;4987791;28;20198;-77
2023/05/19 01:22:14;;;;;;;6.70;2.00;;;;;;;11.16;100.00;99773.88;4987358;28;20191;-77
2023/05/19 01:25:11;;;;;;;6.17;2.20;;;;;;;11.25;100.00;99777.81;4968184;28;20302;-77
2023/05/19 01:27:58;;;;;;;8.60;3.13;;;;;;;11.25;100.00;99775.16;4963553;28;20204;-77
2023/05/19 01:30:30;;;;;;;6.40;2.33;;;;;;;11.14;100.00;99775.78;4966607;28;20204;-77
2023/05/19 01:33:05;;;;;;;7.07;2.20;;;;;;;10.94;100.00;99778.69;4965481;28;20196;-77
2023/05/19 01:35:36;;;;;;;7.93;2.90;;;;;;;10.88;100.00;99785.16;4971650;28;20202;-77
2023/05/19 01:38:09;;;;;;;7.00;2.60;;;;;;;10.87;100.00;99781.66;4971796;28;20195;-77
2023/05/19 01:40:39;;;;;;;6.30;2.20;;;;;;;10.92;100.00;99785.88;4966271;28;20278;-77
2023/05/19 01:43:10;;;;;;;7.83;2.53;;;;;;;10.93;100.00;99777.84;4977754;28;20199;-77
2023/05/19 01:45:41;;;;;;;6.57;2.20;;;;;;;10.96;100.00;99784.75;4985075;28;20223;-78
2023/05/19 01:48:10;;;;;;;5.13;2.30;;;;;;;10.93;100.00;99790.22;4985969;28;20199;-77
2023/05/19 01:50:40;;;;;;;4.90;2.40;;;;;;;10.81;100.00;99784.66;4984952;28;20269;-77
2023/05/19 01:53:13;;;;;;;7.47;2.10;;;;;;;10.79;100.00;99785.66;4987414;28;20195;-77
2023/05/19 01:55:48;;;;;;;6.90;2.50;;;;;;;10.87;100.00;99786.97;4991759;28;20199;-77
2023/05/19 01:58:22;;;;;;;6.20;2.20;;;;;;;10.82;100.00;99796.13;4990219;28;20194;-76
2023/05/19 02:00:59;;;;;;;6.80;2.47;;;;;;;10.88;100.00;99788.66;4988124;28;20202;-78
2023/05/19 02:03:42;;;;;;;7.93;2.30;;;;;;;10.56;100.00;99787.78;4992351;28;20205;-78
2023/05/19 02:06:23;;;;;;;5.80;2.10;;;;;;;10.49;100.00;99799.63;4946934;28;20224;-77
2023/05/19 02:08:58;;;;;;;6.17;1.93;;;;;;;10.49;100.00;99798.78;4953434;29;20203;-78
2023/05/19 02:11:36;;;;;;;7.53;2.40;;;;;;;10.51;100.00;99796.91;4942907;29;20202;-78
2023/05/19 02:14:12;;;;;;;5.53;1.73;;;;;;;10.44;100.00;99796.41;4942815;29;20211;-77
2023/05/19 02:16:46;;;;;;;8.60;2.20;;;;;;;10.36;100.00;99793.28;4899934;29;20204;-77
2023/05/19 02:19:23;;;;;;;5.10;1.87;;;;;;;10.23;100.00;99797.50;4948005;29;20204;-78
2023/05/19 02:21:51;;;;;;;5.00;2.07;;;;;;;9.93;100.00;99790.19;4950607;29;20206;-77
2023/05/19 02:24:21;;;;;;;4.80;1.70;;;;;;;10.04;100.00;99792.31;4965261;28;20223;-77
2023/05/19 02:26:50;;;;;;;3.87;1.80;;;;;;;9.89;100.00;99790.44;4990066;28;20206;-78
2023/05/19 02:29:22;;;;;;;5.67;1.80;;;;;;;10.00;100.00;99791.59;4987268;28;20255;-77
2023/05/19 02:31:52;;;;;;;5.90;2.17;;;;;;;10.04;100.00;99793.16;4986493;28;20270;-78
2023/05/19 02:34:21;;;;;;;4.03;2.30;;;;;;;10.03;100.00;99787.91;4993800;28;20191;-78
2023/05/19 02:36:51;;;;;;;4.93;2.57;;;;;;;10.14;100.00;99779.44;4985473;28;20203;-78
2023/05/19 02:39:20;;;;;;;5.37;2.17;;;;;;;10.29;100.00;99786.59;4986870;28;20202;-77
2023/05/19 02:41:49;;;;;;;5.60;2.23;;;;;;;10.26;100.00;99778.81;4991084;28;20279;-77
2023/05/19 02:44:17;;;;;;;7.13;2.40;;;;;;;10.07;100.00;99784.19;4985179;28;20209;-77
2023/05/19 02:46:46;;;;;;;7.47;2.30;;;;;;;9.80;100.00;99781.16;4930973;29;20301;-77
2023/05/19 02:49:16;;;;;;;4.70;2.20;;;;;;;10.01;100.00;99785.34;4924596;29;20193;-77
2023/05/19 02:51:45;;;;;;;6.63;2.07;;;;;;;9.96;100.00;99781.25;4928338;29;20237;-77
2023/05/19 02:54:13;;;;;;;10.70;2.40;;;;;;;10.06;100.00;99773.69;4926996;29;20288;-77
2023/05/19 02:56:41;;;;;;;5.47;2.03;;;;;;;10.14;100.00;99776.81;4926634;29;20359;-77
2023/05/19 02:59:10;;;;;;;4.70;2.13;;;;;;;9.96;100.00;99775.97;4924649;29;20205;-77
2023/05/19 03:01:40;;;;;;;6.13;2.40;;;;;;;9.87;100.00;99776.44;4929428;29;20203;-77
2023/05/19 03:04:08;;;;;;;7.70;3.00;;;;;;;9.79;100.00;99776.81;4938005;28;20299;-77
2023/05/19 03:06:38;;;;;;;5.33;2.40;;;;;;;9.93;100.00;99774.31;4988421;28;20238;-77
2023/05/19 03:09:08;;;;;;;6.57;2.63;;;;;;;9.72;100.00;99773.63;4986233;28;20195;-77
2023/05/19 03:11:36;;;;;;;11.20;2.70;;;;;;;9.77;100.00;99772.53;4987931;28;20230;-77
2023/05/19 03:14:05;;;;;;;5.27;2.60;;;;;;;9.66;100.00;99775.72;4928722;29;20228;-77
2023/05/19 03:16:35;;;;;;;8.67;2.73;;;;;;;9.60;100.00;99783.97;4929327;29;20677;-78
2023/05/19 03:19:04;;;;;;;5.87;2.33;;;;;;;9.52;100.00;99775.56;4923509;29;20258;-78
2023/05/19 03:21:33;;;;;;;7.33;2.30;;;;;;;9.53;100.00;99786.03;4836006;29;20208;-78
2023/05/19 03:24:03;;;;;;;3.23;2.00;;;;;;;9.51;100.00;99787.06;4835250;29;20313;-78
2023/05/19 03:26:33;;;;;;;4.53;2.10;;;;;;;9.48;100.00;99787.22;4817470;29;20235;-77
2023/05/19 03:29:01;;;;;;;4.70;2.23;;;;;;;9.42;100.00;99791.00;4817595;29;20216;-77
2023/05/19 03:31:33;;;;;;;7.83;2.50;;;;;;;9.44;100.00;99786.50;4827072;29;20203;-78
2023/05/19 03:34:02;;;;;;;5.17;2.50;;;;;;;9.39;100.00;99783.25;4851880;29;20207;-77
2023/05/19 03:36:38;;;;;;;7.73;2.80;;;;;;;9.41;100.00;99787.50;4853611;29;20318;-77
2023/05/19 03:39:08;;;;;;;7.90;2.20;;;;;;;9.35;100.00;99782.50;4840507;29;20246;-78
2023/05/19 03:41:37;;;;;;;6.80;2.47;;;;;;;9.39;100.00;99783.25;4850933;29;20204;-78
2023/05/19 03:44:08;;;;;;;6.70;2.33;;;;;;;9.50;100.00;99786.22;4854373;29;20200;-78
2023/05/19 03:46:37;;;;;;;7.83;2.80;;;;;;;9.45;100.00;99788.22;4855022;29;20249;-78
2023/05/19 03:49:06;;;;;;;8.77;2.40;;;;;;;9.38;100.00;99785.03;4854867;29;20208;-77
2023/05/19 03:51:38;;;;;;;6.47;2.20;;;;;;;9.33;100.00;99789.66;4881051;28;20199;-77
2023/05/19 03:54:08;;;;;;;6.07;2.23;;;;;;;9.42;100.00;99785.72;4985498;28;20274;-77
2023/05/19 03:56:39;;;;;;;7.13;2.50;;;;;;;9.36;100.00;99786.91;4984164;28;20200;-77
2023/05/19 03:59:09;;;;;;;4.23;2.40;;;;;;;9.33;100.00;99781.75;4961106;28;20195;-78
2023/05/19 04:01:38;;;;;;;5.87;2.63;;;;;;;9.37;100.00;99785.13;4989454;28;20286;-78
2023/05/19 04:04:07;;;;;;;7.80;2.70;;;;;;;9.40;100.00;99777.88;4993833;28;20203;-78
2023/05/19 04:06:36;;;;;;;8.43;2.37;;;;;;;9.22;100.00;99784.06;4993692;28;20314;-76
2023/05/19 04:09:14;;;;;;;6.70;2.43;;;;;;;9.28;100.00;99790.84;4991204;28;20873;-77
2023/05/19 04:11:43;;;;;;;6.57;2.83;;;;;;;9.18;100.00;99790.44;4992091;28;20194;-78
2023/05/19 04:14:13;;;;;;;9.13;3.03;;;;;;;9.23;100.00;99787.56;4984939;28;20199;-78
2023/05/19 04:16:42;;;;;;;10.77;2.77;;;;;;;9.25;100.00;99786.53;4990052;28;20740;-79
2023/05/19 04:19:10;;;;;;;7.27;2.67;;;;;;;9.27;100.00;99783.84;4990594;28;20199;-78
2023/05/19 04:21:39;;;;;;;8.57;2.97;;;;;;;9.19;100.00;99789.50;4931123;29;20201;-79
2023/05/19 04:24:07;;;;;;;6.33;2.73;;;;;;;9.28;100.00;99791.69;4933703;29;20213;-79
2023/05/19 04:26:41;;;;;;;7.03;2.43;;;;;;;9.22;100.00;99785.84;4927067;29;20248;-78
2023/05/19 04:29:09;;;;;;;5.43;2.40;;;;;;;9.40;100.00;99796.38;4930200;29;20201;-78
2023/05/19 04:31:39;;;;;;;6.77;2.43;;;;;;;9.43;100.00;99796.22;4926294;29;20208;-79
2023/05/19 04:34:08;;;;;;;5.93;2.53;;;;;;;9.45;100.00;99797.00;4930080;29;20212;-78
2023/05/19 04:36:37;;;;;;;7.83;2.60;;;;;;;9.56;100.00;99800.94;4894751;29;20210;-78
2023/05/19 04:39:07;;;;;;;6.03;2.40;;;;;;;9.59;100.00;99793.69;4905637;29;20204;-78
2023/05/19 04:41:39;;;;;;;6.30;2.60;;;;;;;9.52;100.00;99802.84;4945358;28;20291;-79
2023/05/19 04:44:08;;;;;;;6.10;2.43;;;;;;;9.54;100.00;99797.47;4946592;29;20224;-78
2023/05/19 04:46:36;;;;;;;3.87;2.37;;;;;;;9.54;100.00;99800.97;4945414;29;20224;-79
2023/05/19 04:49:05;;;;;;;6.20;2.67;;;;;;;9.63;100.00;99805.81;4946004;29;20625;-78
2023/05/19 04:51:34;;;;;;;3.80;2.30;;;;;;;9.58;100.00;99802.56;4947699;28;20204;-78
2023/05/19 04:54:05;;;;;;;10.40;2.57;;;;;;;9.59;100.00;99800.75;4944463;29;20207;-78
2023/05/19 04:56:34;;;;;;;11.57;2.90;;;;;;;9.61;100.00;99806.84;4952603;29;20228;-78
2023/05/19 04:59:04;;;;;;;9.10;2.60;;;;;;;9.70;100.00;99807.22;4948280;29;20192;-80
2023/05/19 05:01:32;;;;;;;6.03;2.33;;;;;;;9.90;100.00;99806.22;4971438;28;20282;-79
2023/05/19 05:04:05;;;;;;;5.70;2.30;;;;;;;9.94;100.00;99809.56;4930436;29;20202;-78
2023/05/19 05:06:33;;;;;;;5.97;2.17;;;;;;;10.16;100.00;99811.97;4950992;29;20221;-78
2023/05/19 05:09:03;;;;;;;7.63;2.13;;;;;;;10.16;100.00;99812.84;4951509;29;20196;-79
2023/05/19 05:11:32;;;;;;;6.07;2.30;;;;;;;10.27;100.00;99807.00;4931756;29;20205;-77
2023/05/19 05:14:02;;;;;;;9.60;2.50;;;;;;;10.34;100.00;99816.34;4925302;29;20207;-78
2023/05/19 05:16:34;;;;;;;6.63;2.63;;;;;;;10.46;100.00;99817.50;4932480;29;20201;-78
2023/05/19 05:19:03;;;;;;;5.23;2.40;;;;;;;10.39;100.00;99808.16;4926560;29;20209;-78
2023/05/19 05:21:32;;;;;;;7.83;2.30;;;;;;;10.59;100.00;99810.59;4927797;29;20189;-77
2023/05/19 05:24:01;;;;;;;5.80;2.83;;;;;;;10.79;100.00;99804.22;4927384;29;20201;-78
2023/05/19 05:26:33;;;;;;;8.30;2.23;;;;;;;10.78;100.00;99800.72;4928630;29;20231;-78
2023/05/19 05:29:02;;;;;;;8.37;2.73;;;;;;;11.03;100.00;99802.88;4942161;28;20279;-78
2023/05/19 05:31:33;;;;;;;7.37;2.27;;;;;;;10.82;100.00;99809.38;4947556;28;20313;-77
2023/05/19 05:34:01;;;;;;;8.13;2.80;;;;;;;11.02;100.00;99803.84;4950741;28;20244;-78
2023/05/19 05:36:30;;;;;;;3.50;2.10;;;;;;;11.23;100.00;99795.63;4965370;28;20226;-78
2023/05/19 05:39:01;;;;;;;8.77;2.57;;;;;;;11.19;100.00;99797.56;4988053;28;20203;-78
2023/05/19 05:41:34;;;;;;;6.73;2.70;;;;;;;11.35;100.00;99797.56;4983394;28;20203;-78
2023/05/19 05:44:07;;;;;;;6.70;2.50;;;;;;;11.30;100.00;99797.84;4947856;29;20196;-78
2023/05/19 05:46:38;;;;;;;8.63;2.27;;;;;;;11.38;100.00;99797.38;4945507;29;20216;-78
2023/05/19 05:49:07;;;;;;;5.30;1.90;;;;;;;11.44;100.00;99792.59;4948258;29;20216;-78
2023/05/19 05:51:36;;;;;;;4.60;2.30;;;;;;;11.49;100.00;99789.69;4890865;29;20241;-78
2023/05/19 05:54:07;;;;;;;6.37;2.67;;;;;;;11.59;100.00;99796.16;4886007;29;20287;-78
2023/05/19 05:56:36;;;;;;;6.27;2.17;;;;;;;11.71;100.00;99791.94;4890569;29;20224;-78
2023/05/19 05:59:04;;;;;;;5.93;2.17;;;;;;;11.76;100.00;99798.66;4895308;29;20201;-78
2023/05/19 06:01:35;;;;;;;6.50;2.40;;;;;;;11.86;100.00;99795.50;4895933;29;20192;-78
2023/05/19 06:04:05;;;;;;;5.63;2.27;;;;;;;11.74;100.00;99794.41;4928776;29;20244;-78
2023/05/19 06:06:34;;;;;;;6.37;2.27;;;;;;;11.85;100.00;99789.34;4929880;29;20237;-78
2023/05/19 06:09:03;;;;;;;6.10;2.10;;;;;;;11.93;100.00;99800.38;4926631;29;20336;-78
2023/05/19 06:11:31;;;;;;;10.00;7.07;;;;;;;12.03;100.00;99796.22;4927440;29;20215;-78
2023/05/19 06:14:00;;;;;;;9.47;3.40;;;;;;;12.19;100.00;99797.97;4925228;29;20205;-78
2023/05/19 06:16:28;;;;;;;15.67;7.03;;;;;;;12.20;100.00;99795.22;4965512;28;20351;-78
2023/05/19 06:18:57;;;;;;;8.23;4.70;;;;;;;12.26;100.00;99794.00;4980831;28;20214;-78
2023/05/19 06:21:27;;;;;;;12.53;5.67;;;;;;;12.52;100.00;99793.25;4990898;28;20352;-78
2023/05/19 06:23:56;;;;;;;12.70;5.10;;;;;;;12.50;100.00;99795.16;4983374;28;20191;-78
2023/05/19 06:26:25;;;;;;;9.60;4.40;;;;;;;12.55;100.00;99803.69;4981538;28;20198;-77
2023/05/19 06:28:54;;;;;;;14.63;6.83;;;;;;;12.33;100.00;99790.84;4979697;28;20242;-78
2023/05/19 06:31:25;;;;;;;15.77;6.80;;;;;;;12.54;100.00;99791.34;4987784;28;20246;-78
2023/05/19 06:33:53;;;;;;;11.80;5.23;;;;;;;12.69;100.00;99791.34;4987714;28;20257;-78
2023/05/19 06:36:22;;;;;;;14.67;4.80;;;;;;;12.92;100.00;99792.53;4988405;28;20199;-78
2023/05/19 06:38:52;;;;;;;7.20;3.43;;;;;;;12.94;100.00;99790.66;4989608;28;20210;-78
2023/05/19 06:41:20;;;;;;;6.10;2.47;;;;;;;12.85;100.00;99786.78;4990801;28;20650;-78
2023/05/19 06:43:48;;;;;;;7.47;2.90;;;;;;;12.94;100.00;99780.88;4985475;28;20203;-78
2023/05/19 06:46:17;;;;;;;6.00;2.83;;;;;;;13.03;100.00;99782.97;4993622;28;20191;-78
2023/05/19 06:48:45;;;;;;;7.67;2.80;;;;;;;13.28;100.00;99781.38;4985019;28;20227;-77
2023/05/19 06:51:15;;;;;;;8.30;2.17;;;;;;;13.39;100.00;99789.53;4988577;28;20202;-77
2023/05/19 06:53:43;;;;;;;6.63;2.03;;;;;;;13.43;100.00;99786.56;4984998;28;20195;-78
2023/05/19 06:56:14;;;;;;;7.90;2.47;;;;;;;13.55;100.00;99779.59;4988865;28;20199;-78
2023/05/19 06:58:42;;;;;;;11.37;2.40;;;;;;;13.64;100.00;99775.47;4987404;28;20199;-77
2023/05/19 07:01:10;;;;;;;5.17;1.83;;;;;;;13.55;100.00;99768.94;4985651;28;20199;-78
2023/05/19 07:03:39;;;;;;;4.17;1.90;;;;;;;13.74;100.00;99772.06;4987797;28;20203;-78
2023/05/19 07:06:07;;;;;;;7.10;2.80;;;;;;;13.74;100.00;99772.06;4985338;28;20231;-78
2023/05/19 07:08:36;;;;;;;4.67;2.03;;;;;;;13.99;100.00;99767.72;4993214;28;20310;-78
2023/05/19 07:11:05;;;;;;;7.80;2.20;;;;;;;13.80;100.00;99772.59;4984911;28;20369;-78
2023/05/19 07:13:36;;;;;;;5.27;2.10;;;;;;;13.94;100.00;99764.53;4989179;28;20246;-78
2023/05/19 07:16:05;;;;;;;9.63;2.00;;;;;;;14.15;100.00;99765.72;4984386;28;20278;-78
2023/05/19 07:18:34;;;;;;;3.73;2.00;;;;;;;14.21;100.00;99761.81;4986589;28;20203;-78
2023/05/19 07:21:02;;;;;;;8.87;2.50;;;;;;;14.38;100.00;99763.28;4987444;28;20234;-78
2023/05/19 07:23:31;;;;;;;4.00;2.20;;;;;;;14.50;98.59;99759.81;4990398;28;20225;-78
2023/05/19 07:26:00;;;;;;;5.40;2.57;;;;;;;14.38;95.60;99771.28;4987679;28;20226;-77
2023/05/19 07:28:28;;;;;;;6.80;1.97;;;;;;;14.58;94.94;99768.97;4985118;28;20226;-78
2023/05/19 07:30:58;;;;;;;6.07;1.83;;;;;;;14.32;92.75;99768.09;4988666;28;20218;-77
2023/05/19 07:33:26;;;;;;;8.40;2.77;;;;;;;14.49;93.21;99756.28;4989712;28;20199;-78
2023/05/19 07:35:55;;;;;;;9.80;3.07;;;;;;;14.61;91.40;99765.22;4990899;28;20650;-78
2023/05/19 07:38:24;;;;;;;6.57;2.30;;;;;;;14.52;92.87;99758.72;4987105;28;20199;-78
2023/05/19 07:40:52;;;;;;;7.63;2.20;;;;;;;14.65;94.34;99752.50;4986321;28;20206;-78
2023/05/19 07:43:20;;;;;;;5.57;1.93;;;;;;;14.75;91.96;99748.22;4989320;28;20203;-78
2023/05/19 07:45:48;;;;;;;7.50;2.57;;;;;;;15.02;93.54;99748.06;4991232;28;20199;-78
2023/05/19 07:48:21;;;;;;;8.40;2.23;;;;;;;15.20;92.81;99748.53;4992621;28;20219;-78
2023/05/19 07:50:49;;;;;;;6.80;2.40;;;;;;;15.33;90.29;99741.31;4990818;28;20188;-78
2023/05/19 07:53:19;;;;;;;6.73;2.13;;;;;;;15.41;88.95;99744.25;4993937;28;20207;-78
2023/05/19 07:55:47;;;;;;;5.10;1.97;;;;;;;15.45;88.74;99741.25;4993555;28;20205;-78
2023/05/19 07:58:16;;;;;;;5.13;1.70;;;;;;;15.61;90.09;99737.47;4987016;28;20195;-79
2023/05/19 08:00:44;;;;;;;6.20;2.10;;;;;;;15.50;89.65;99743.56;4983297;28;20227;-78
2023/05/19 08:03:16;;;;;;;5.30;2.00;;;;;;;15.34;89.64;99743.00;4993172;28;20551;-78
2023/05/19 08:05:46;;;;;;;6.93;2.33;;;;;;;15.54;89.28;99731.72;4993247;28;20289;-78
2023/05/19 08:08:15;;;;;;;4.70;1.90;;;;;;;15.75;85.25;99739.94;4996393;28;20226;-78
2023/05/19 08:10:43;;;;;;;5.53;2.00;;;;;;;15.78;84.39;99741.53;4986957;28;20218;-79
2023/05/19 08:13:12;;;;;;;7.57;2.23;;;;;;;15.78;88.04;99734.38;4991547;28;20202;-78
2023/05/19 08:15:41;;;;;;;4.97;2.03;;;;;;;16.16;86.20;99734.09;4993649;28;20667;-79
2023/05/19 08:18:10;;;;;;;5.17;1.97;;;;;;;16.33;83.17;99737.28;4990485;28;20195;-78
2023/05/19 08:20:42;;;;;;;4.77;2.00;;;;;;;16.11;82.79;99732.72;4955036;28;20250;-79
2023/05/19 08:23:13;;;;;;;5.03;1.90;;;;;;;16.43;80.71;99731.06;4990028;28;20658;-79
2023/05/19 08:25:41;;;;;;;5.60;2.47;;;;;;;16.35;77.79;99735.31;4989573;28;20334;-79
2023/05/19 08:28:10;;;;;;;12.30;5.00;;;;;;;16.35;81.14;99738.00;4986151;28;20222;-79
2023/05/19 08:30:38;;;;;;;6.00;3.30;;;;;;;16.62;81.17;99733.16;4984178;28;20207;-78
2023/05/19 08:33:07;;;;;;;6.20;2.27;;;;;;;16.91;77.35;99725.47;4990490;28;20203;-79
2023/05/19 08:35:36;;;;;;;5.50;2.00;;;;;;;16.95;77.13;99713.53;4986395;28;20410;-79
2023/05/19 08:38:04;;;;;;;4.57;3.10;;;;;;;17.03;76.33;99716.44;4990575;28;20203;-79
2023/05/19 08:40:37;;;;;;;5.57;3.60;;;;;;;17.15;76.43;99712.75;4990798;28;20215;-79
2023/05/19 08:43:06;;;;;;;5.87;2.70;;;;;;;16.77;75.41;99720.38;4999503;28;20203;-79
2023/05/19 08:45:34;;;;;;;7.70;4.00;;;;;;;16.81;78.70;99722.69;4997429;28;20210;-79
2023/05/19 08:48:04;;;;;;;6.37;2.40;;;;;;;16.70;78.82;99711.16;4999389;28;20192;-78
2023/05/19 08:50:36;;;;;;;5.97;2.13;;;;;;;16.83;74.68;99720.75;4989214;28;20234;-78
2023/05/19 08:53:12;;;;;;;8.50;1.97;;;;;;;16.76;70.77;99716.00;4996671;28;20209;-79
2023/05/19 08:56:09;;;;;;;7.40;2.03;;;;;;;17.03;72.05;99716.44;5003836;28;20235;-78
2023/05/19 08:58:40;;;;;;;5.50;3.17;;;;;;;17.16;73.51;99716.28;4996623;28;20207;-78
2023/05/19 09:01:09;;;;;;;5.07;3.13;;;;;;;17.36;70.92;99711.94;4989791;28;20195;-78
2023/05/19 09:03:38;;;;;;;4.50;2.07;;;;;;;17.55;67.52;99706.75;4993424;28;20192;-78
2023/05/19 09:06:08;;;;;;;5.20;2.17;;;;;;;17.50;67.27;99708.97;4992642;28;20255;-79
2023/05/19 09:08:36;;;;;;;4.93;2.30;;;;;;;17.46;65.81;99710.19;4991524;28;20250;-78
2023/05/19 09:11:06;;;;;;;6.90;2.00;;;;;;;17.63;63.04;99706.97;4990197;28;20200;-78
2023/05/19 09:13:35;;;;;;;8.00;2.20;;;;;;;17.70;62.00;99700.16;4991609;28;20253;-78
2023/05/19 09:16:05;;;;;;;4.20;2.13;;;;;;;17.14;63.41;99697.66;4989198;28;20206;-78
2023/05/19 09:18:34;;;;;;;9.90;2.47;;;;;;;17.27;64.14;99699.31;4986802;28;20281;-79
2023/05/19 09:21:03;;;;;;;7.17;2.30;;;;;;;17.33;65.37;99702.34;4929174;29;20288;-79
2023/05/19 09:23:33;;;;;;;4.97;2.00;;;;;;;17.78;66.95;99698.66;4930181;29;20201;-78
2023/05/19 09:26:03;;;;;;;5.63;2.20;;;;;;;17.57;64.30;99693.25;4930867;29;20602;-78
2023/05/19 09:28:35;;;;;;;8.20;2.40;;;;;;;17.77;65.68;99684.41;4928251;29;20339;-78
2023/05/19 09:31:06;;;;;;;5.53;2.00;;;;;;;17.92;61.28;99690.25;4929053;29;20193;-78
2023/05/19 09:33:36;;;;;;;4.27;2.23;;;;;;;18.06;63.97;99681.06;4927845;29;20229;-77
2023/05/19 09:36:07;;;;;;;4.47;2.13;;;;;;;18.27;63.90;99680.03;4932374;29;20724;-78
2023/05/19 09:38:36;;;;;;;5.77;2.20;;;;;;;18.04;66.46;99681.16;4945510;28;20195;-78
2023/05/19 09:41:06;;;;;;;4.60;2.07;;;;;;;18.23;66.12;99678.56;4992128;28;20222;-78
2023/05/19 09:43:36;;;;;;;5.63;2.00;;;;;;;18.51;60.65;99673.47;4984991;28;20663;-78
2023/05/19 09:46:05;;;;;;;3.03;1.77;;;;;;;18.79;61.78;99669.19;4988502;28;20207;-79
2023/05/19 09:48:35;;;;;;;4.37;2.00;;;;;;;18.97;55.81;99675.59;4992156;28;20663;-78
2023/05/19 09:51:09;;;;;;;2.80;1.53;;;;;;;18.75;56.83;99670.47;4987838;28;20230;-79
2023/05/19 09:53:37;;;;;;;4.60;1.87;;;;;;;19.05;58.35;99665.00;4984986;28;20246;-79
2023/05/19 09:56:08;;;;;;;4.60;1.90;;;;;;;19.55;57.76;99654.13;4987149;28;20226;-79
2023/05/19 09:58:42;;;;;;;5.83;1.60;;;;;;;19.40;52.93;99655.56;4987874;28;20278;-79
2023/05/19 10:01:11;;;;;;;5.50;2.00;;;;;;;19.29;48.94;99671.81;4990497;28;20234;-79
2023/05/19 10:03:40;;;;;;;2.80;1.70;;;;;;;19.41;45.80;99660.78;4988475;28;20215;-78
2023/05/19 10:06:10;;;;;;;2.53;1.67;;;;;;;19.33;46.13;99662.50;4989834;28;20259;-78
2023/05/19 10:08:41;;;;;;;4.80;2.47;;;;;;;19.55;45.48;99659.50;4987975;28;20199;-79
2023/05/19 10:11:11;;;;;;;3.30;2.17;;;;;;;19.46;46.59;99646.91;4989208;28;20207;-78
2023/05/19 10:13:42;;;;;;;4.53;1.90;;;;;;;19.81;45.35;99653.56;4988780;28;20206;-78
2023/05/19 10:16:11;;;;;;;5.43;1.83;;;;;;;19.72;46.89;99648.06;4988478;28;20200;-78
2023/05/19 10:18:40;;;;;;;3.60;1.70;;;;;;;20.38;44.27;99646.28;4987455;28;20203;-77
2023/05/19 10:21:10;;;;;;;3.17;1.60;;;;;;;20.15;46.75;99643.13;4912296;29;20190;-79
2023/05/19 10:23:39;;;;;;;3.37;1.70;;;;;;;20.55;45.29;99640.97;4911676;29;20205;-78
2023/05/19 10:26:08;;;;;;;4.17;1.90;;;;;;;20.37;45.58;99641.91;4913331;29;20225;-79
2023/05/19 10:28:40;;;;;;;4.93;2.17;;;;;;;20.40;45.51;99625.44;4913389;29;20705;-79
2023/05/19 10:31:14;;;;;;;4.00;1.60;;;;;;;20.87;44.54;99620.81;4914275;29;20217;-78
2023/05/19 10:34:01;;;;;;;5.67;2.30;;;;;;;21.22;46.00;99619.09;4914923;29;20233;-78
2023/05/19 10:36:58;;;;;;;8.00;3.93;;;;;;;21.16;46.68;99612.50;4911022;29;20212;-79
2023/05/19 10:39:29;;;;;;;6.40;2.58;;;;;;;21.50;42.74;99614.50;4951637;28;20199;-78
2023/05/19 10:42:11;;;;;;;3.97;2.00;;;;;;;21.81;41.11;99614.88;4988116;28;20286;-78
2023/05/19 10:44:53;;;;;;;4.18;1.90;;;;;;;22.10;38.52;99611.88;4987069;28;20203;-78
2023/05/19 10:47:25;;;;;;;5.18;1.95;;;;;;;21.37;41.02;99612.22;4990219;28;20206;-77
2023/05/19 10:49:54;;;;;;;3.42;1.92;;;;;;;21.82;39.99;99600.41;4988811;28;20277;-79
2023/05/19 10:52:24;;;;;;;6.78;2.22;;;;;;;20.98;42.59;99603.59;4989264;28;20281;-79
2023/05/19 10:54:53;;;;;;;7.03;3.47;;;;;;;21.66;41.66;99610.06;4990979;28;20203;-79
2023/05/19 10:57:27;;;;;;;7.18;3.15;;;;;;;21.68;41.27;99609.91;4988313;28;20261;-79
2023/05/19 10:59:56;;;;;;;7.43;2.30;;;;;;;21.92;40.52;99610.09;4984892;28;20229;-79
2023/05/19 11:02:40;;;;;;;4.47;2.08;;;;;;;21.86;41.79;99608.00;4990607;28;20202;-79
2023/05/19 11:05:11;;;;;;;4.90;2.53;;;;;;;21.66;41.59;99614.63;4990102;28;20358;-79
2023/05/19 11:07:43;;;;;;;5.95;2.28;;;;;;;22.13;41.24;99612.41;4990333;28;20231;-79
2023/05/19 11:10:12;;;;;;;2.65;1.63;;;;;;;22.45;41.09;99603.59;4984173;28;20291;-79
2023/05/19 11:12:42;;;;;;;4.65;2.22;;;;;;;22.23;42.45;99607.75;4981343;28;20209;-79
2023/05/19 11:15:12;;;;;;;5.15;2.13;;;;;;;22.84;40.83;99608.47;4949005;29;20211;-79
2023/05/19 11:17:48;;;;;;;5.35;1.77;;;;;;;22.56;40.84;99607.84;4946095;29;20263;-79
2023/05/19 11:20:24;;;;;;;4.45;1.88;;;;;;;22.38;40.47;99601.72;4945990;29;20248;-78
2023/05/19 11:23:05;;;;;;;6.28;1.83;;;;;;;21.85;41.77;99589.28;4949991;29;20222;-79
2023/05/19 11:25:44;;;;;;;3.33;1.73;;;;;;;22.03;43.13;99595.47;4948494;29;20368;-79
2023/05/19 11:28:16;;;;;;;3.63;2.00;;;;;;;22.85;39.20;99592.09;4948840;29;20212;-79
2023/05/19 11:30:49;;;;;;;4.90;2.33;;;;;;;22.27;39.51;99594.75;4949508;28;20231;-79
2023/05/19 11:33:20;;;;;;;4.18;2.08;;;;;;;23.03;39.66;99586.53;4971199;28;20203;-79
2023/05/19 11:35:51;;;;;;;2.92;1.80;;;;;;;23.02;40.65;99575.91;4990251;28;20199;-78
2023/05/19 11:38:22;;;;;;;4.78;1.98;;;;;;;23.23;39.78;99572.69;4990325;28;20187;-78
2023/05/19 11:40:53;;;;;;;3.80;1.98;;;;;;;22.90;41.55;99572.69;4988674;28;20210;-79
2023/05/19 11:43:23;;;;;;;3.78;1.63;;;;;;;23.62;38.76;99570.16;4991739;28;20199;-79
2023/05/19 11:45:55;;;;;;;4.18;1.98;;;;;;;22.95;38.16;99573.03;4986946;28;20286;-78